Terminal Aerodrome Forecast
Issued by NWS

Home | Current Version | Previous Version | Text Only | Print | Product List | Glossary On
Versions: 1 2 3 4 5 6 7 8 9 10 11 12 13 14 15 16 17 18 19 20 21 22 23 24 25 26 27 28 29 30 31 32 33 34
000
FTUS41 KBOX 232331
TAFACK
TAF
KACK 232331Z 2400/2424 04005KT P6SM BKN150
     FM240400 13005KT 4SM BR BKN060
     FM240700 07010KT 2SM -RA BR OVC005
     FM241000 06011KT 3/4SM -RA BR OVC003
     FM241500 06017KT 4SM BR VCSH OVC005
     FM242000 04017G24KT P6SM OVC008=

USA.gov is the U.S. government's official web portal to all federal, state and local government web resources and services.